University of Wyoming, Wyoming
Current Conditions -  °F | °C
As of 1:53 AM on Thursday 27 Nov 2014 (Local Time) from KLAR Reporting Station
Clear Clear  
Wind Chill:   Ceiling: Unl
Heat Index:   Visibility: 10mi
Dew Point: -6°   Wind: 3mph
Humidity: 57%   Direction: 220°SW
Pressure: 30.28"   Gusts: NA
Location:  41.4218°N, 105.605°W
Report Text: KLAR 270853Z AUTO 22003KT 10SM CLR 02/M06 A3028 RMK AO2 SLP222 T00171061 51003
Loading
Personal Weather Stations






























Interactive Weather Map New forecast layout! Learn more

10-Day Weather Forecast

Advertisements
Track Severe Weather on mobile